Time;durP1;ratioP1;P1;durP2;ratioP2;P2;SDS_P1;SDS_P2;PMS_P1;PMS_P2;Temp;Humidity;BMP_temperature;BMP_pressure;BME280_temperature;BME280_humidity;BME280_pressure;Samples;Min_cycle;Max_cycle;Signal;HPM_P1;HPM_P2
2022/03/21 00:01:02;;;;;;;14.05;11.00;;;8.90;42.60;;;;;;5053861;28;20225;-65
2022/03/21 00:03:30;;;;;;;14.48;11.73;;;9.00;42.40;;;;;;5054269;28;20212;-65
2022/03/21 00:05:58;;;;;;;15.45;11.43;;;9.00;42.50;;;;;;5053625;28;20240;-65
2022/03/21 00:08:28;;;;;;;14.27;11.90;;;9.00;42.60;;;;;;5054243;28;20299;-65
2022/03/21 00:10:56;;;;;;;13.48;11.85;;;9.00;42.60;;;;;;5041823;28;20233;-64
2022/03/21 00:13:24;;;;;;;14.23;12.27;;;9.00;42.60;;;;;;5054013;28;20217;-64
2022/03/21 00:15:53;;;;;;;14.05;11.90;;;8.90;42.70;;;;;;5054132;28;20291;-65
2022/03/21 00:18:20;;;;;;;13.65;11.82;;;8.90;42.70;;;;;;5053336;28;20622;-65
2022/03/21 00:20:49;;;;;;;13.98;12.45;;;9.00;42.80;;;;;;5053801;28;20591;-65
2022/03/21 00:23:17;;;;;;;14.02;12.60;;;8.90;42.70;;;;;;5053333;28;20312;-65
2022/03/21 00:25:46;;;;;;;15.10;12.75;;;8.80;42.70;;;;;;5051965;28;20232;-65
2022/03/21 00:28:13;;;;;;;13.25;11.95;;;8.80;42.80;;;;;;5053134;28;20213;-64
2022/03/21 00:30:43;;;;;;;13.38;12.02;;;8.80;42.90;;;;;;5053634;28;20307;-65
2022/03/21 00:33:10;;;;;;;13.43;12.02;;;8.70;42.90;;;;;;5053318;28;20222;-64
2022/03/21 00:35:37;;;;;;;13.90;12.50;;;8.60;43.10;;;;;;5053419;28;20248;-65
2022/03/21 00:38:05;;;;;;;15.23;12.02;;;8.70;43.30;;;;;;5052852;28;20531;-65
2022/03/21 00:40:32;;;;;;;14.30;12.40;;;8.60;43.30;;;;;;5053553;28;20687;-65
2022/03/21 00:43:01;;;;;;;15.77;13.25;;;8.50;43.40;;;;;;5053485;28;20291;-65
2022/03/21 00:45:28;;;;;;;17.08;12.35;;;8.60;43.50;;;;;;5053359;28;20248;-65
2022/03/21 00:47:55;;;;;;;14.32;12.55;;;8.60;43.60;;;;;;5053413;28;20229;-65
2022/03/21 00:50:25;;;;;;;13.07;11.18;;;8.60;43.50;;;;;;5053079;28;20299;-65
2022/03/21 00:52:54;;;;;;;12.07;10.80;;;8.60;43.60;;;;;;5040024;28;20221;-64
2022/03/21 00:55:23;;;;;;;13.75;11.60;;;8.60;43.50;;;;;;5033710;28;20231;-65
2022/03/21 00:57:49;;;;;;;15.32;11.55;;;8.50;43.30;;;;;;5034453;28;20225;-65
2022/03/21 01:00:20;;;;;;;13.65;12.25;;;8.50;43.50;;;;;;5052955;28;20230;-65
2022/03/21 01:02:47;;;;;;;15.05;12.75;;;8.50;43.60;;;;;;5053111;28;20239;-65
2022/03/21 01:05:14;;;;;;;14.05;12.00;;;8.50;43.70;;;;;;5052674;28;20321;-65
2022/03/21 01:07:42;;;;;;;14.50;11.70;;;8.50;43.80;;;;;;5034428;28;20726;-65
2022/03/21 01:10:11;;;;;;;12.68;10.63;;;8.40;43.70;;;;;;5034948;28;20687;-65
2022/03/21 01:12:38;;;;;;;14.45;12.95;;;8.50;43.60;;;;;;5053189;28;20675;-65
2022/03/21 01:15:06;;;;;;;12.38;10.98;;;8.40;43.70;;;;;;5053096;28;20279;-65
2022/03/21 01:17:35;;;;;;;15.70;11.35;;;8.50;43.80;;;;;;5052291;28;20239;-65
2022/03/21 01:20:02;;;;;;;15.23;11.88;;;8.40;43.80;;;;;;5049760;28;20305;-65
2022/03/21 01:22:28;;;;;;;13.43;11.48;;;8.30;43.90;;;;;;5051898;28;20294;-65
2022/03/21 01:24:55;;;;;;;12.95;11.55;;;8.40;44.20;;;;;;5050530;28;20682;-66
2022/03/21 01:27:22;;;;;;;13.95;12.52;;;8.40;44.80;;;;;;5052419;28;20234;-66
2022/03/21 01:29:49;;;;;;;14.70;12.80;;;8.40;44.30;;;;;;5052755;28;20638;-67
2022/03/21 01:32:16;;;;;;;14.18;12.77;;;8.30;44.20;;;;;;5052116;28;20228;-65
2022/03/21 01:34:45;;;;;;;16.42;12.30;;;8.40;44.30;;;;;;5052662;28;20224;-65
2022/03/21 01:37:11;;;;;;;12.48;10.80;;;8.30;44.30;;;;;;5052283;28;20694;-66
2022/03/21 01:39:38;;;;;;;13.02;11.60;;;8.30;44.20;;;;;;5052561;28;20224;-66
2022/03/21 01:42:06;;;;;;;12.23;11.02;;;8.20;44.20;;;;;;5052429;28;20259;-66
2022/03/21 01:44:33;;;;;;;13.05;11.70;;;8.20;44.30;;;;;;5052004;28;20678;-66
2022/03/21 01:47:01;;;;;;;17.17;12.45;;;8.20;44.30;;;;;;5052196;28;20227;-65
2022/03/21 01:49:28;;;;;;;13.50;12.02;;;8.20;44.30;;;;;;5052129;28;20248;-65
2022/03/21 01:51:56;;;;;;;13.02;11.63;;;8.20;44.30;;;;;;5051941;28;20252;-65
2022/03/21 01:57:08;;;;;;;13.63;11.35;;;8.10;44.30;;;;;;5044969;28;20220;-65
2022/03/21 01:59:36;;;;;;;13.77;11.38;;;8.10;44.20;;;;;;5051644;28;20241;-66
2022/03/21 02:02:05;;;;;;;13.50;12.02;;;8.10;44.20;;;;;;5052301;28;20243;-65
2022/03/21 02:04:32;;;;;;;17.38;12.65;;;8.00;44.40;;;;;;5051673;28;20570;-66
2022/03/21 02:07:01;;;;;;;13.90;11.10;;;8.00;44.40;;;;;;5051924;28;20233;-66
2022/03/21 02:09:29;;;;;;;15.75;13.30;;;8.00;44.50;;;;;;5051821;28;20567;-66
2022/03/21 02:11:56;;;;;;;15.18;11.70;;;8.00;44.60;;;;;;5051786;28;20721;-66
2022/03/21 02:14:23;;;;;;;14.75;12.55;;;7.90;44.50;;;;;;5051771;28;20794;-65
2022/03/21 02:16:50;;;;;;;16.95;13.05;;;7.90;44.60;;;;;;5041010;28;20217;-65
2022/03/21 02:19:23;;;;;;;17.48;12.50;;;7.90;44.80;;;;;;5051204;28;20231;-64
2022/03/21 02:22:01;;;;;;;16.35;12.70;;;7.90;44.70;;;;;;5053997;28;20243;-65
2022/03/21 02:24:37;;;;;;;13.40;12.10;;;7.90;44.90;;;;;;5053135;28;20228;-65
2022/03/21 02:27:08;;;;;;;12.73;11.48;;;7.90;44.80;;;;;;5031997;28;20228;-65
2022/03/21 02:29:37;;;;;;;14.05;12.55;;;7.90;44.90;;;;;;5033217;28;20240;-65
2022/03/21 02:32:06;;;;;;;14.50;11.93;;;7.70;45.30;;;;;;5051768;28;20233;-65
2022/03/21 02:34:37;;;;;;;13.38;11.98;;;7.70;44.80;;;;;;5051448;28;20228;-65
2022/03/21 02:37:05;;;;;;;22.00;13.15;;;7.70;44.80;;;;;;5051447;28;20282;-66
2022/03/21 02:39:32;;;;;;;13.52;11.73;;;7.70;44.90;;;;;;5051588;28;20221;-65
2022/03/21 02:41:59;;;;;;;14.20;11.75;;;7.70;44.80;;;;;;5051775;28;20583;-65
2022/03/21 02:44:33;;;;;;;15.90;12.15;;;7.70;44.90;;;;;;5051057;28;20223;-65
2022/03/21 02:47:00;;;;;;;12.40;11.20;;;7.60;45.10;;;;;;5051494;28;20224;-66
2022/03/21 02:49:27;;;;;;;14.95;12.85;;;7.50;45.10;;;;;;5051046;28;20224;-65
2022/03/21 02:51:54;;;;;;;15.38;12.02;;;7.50;45.40;;;;;;5051135;28;20229;-66
2022/03/21 02:54:22;;;;;;;19.08;12.73;;;7.50;45.50;;;;;;5051034;28;20228;-65
2022/03/21 02:56:49;;;;;;;14.70;11.73;;;7.40;45.50;;;;;;5039977;28;20283;-65
2022/03/21 02:59:17;;;;;;;14.85;12.00;;;7.40;45.60;;;;;;5028713;28;20217;-66
2022/03/21 03:01:45;;;;;;;17.80;12.68;;;7.40;45.60;;;;;;5028393;28;20225;-67
2022/03/21 03:04:12;;;;;;;14.77;12.85;;;7.40;45.70;;;;;;5030131;28;20683;-65
2022/03/21 03:06:40;;;;;;;16.98;13.15;;;7.30;45.70;;;;;;5029614;28;20229;-66
2022/03/21 03:09:08;;;;;;;14.38;12.30;;;7.30;45.80;;;;;;5030647;28;20222;-66
2022/03/21 03:11:37;;;;;;;12.60;11.13;;;7.20;45.60;;;;;;5030588;28;20573;-66
2022/03/21 03:14:04;;;;;;;15.23;13.57;;;7.20;45.80;;;;;;5031917;28;20230;-66
2022/03/21 03:16:31;;;;;;;16.70;14.60;;;7.10;45.90;;;;;;5031483;28;20226;-67
2022/03/21 03:18:59;;;;;;;16.58;13.50;;;7.10;46.00;;;;;;5031918;28;20226;-67
2022/03/21 03:21:30;;;;;;;17.52;13.07;;;7.10;45.90;;;;;;5031144;28;20230;-66
2022/03/21 03:23:59;;;;;;;17.08;13.32;;;7.00;46.00;;;;;;5031820;28;20739;-66
2022/03/21 03:26:26;;;;;;;13.88;12.60;;;7.00;46.10;;;;;;5031508;28;20287;-66
2022/03/21 03:28:53;;;;;;;16.35;13.48;;;7.00;46.30;;;;;;5031900;28;20297;-66
2022/03/21 03:31:20;;;;;;;15.18;12.77;;;7.00;46.30;;;;;;5034735;28;20233;-66
2022/03/21 03:33:48;;;;;;;16.52;13.98;;;6.90;46.30;;;;;;5035328;28;20221;-66
2022/03/21 03:36:17;;;;;;;18.88;14.95;;;6.90;46.30;;;;;;5035261;28;20275;-66
2022/03/21 03:38:45;;;;;;;17.55;14.75;;;6.80;46.20;;;;;;5035238;28;21504;-65
2022/03/21 03:41:11;;;;;;;18.88;13.65;;;6.70;46.40;;;;;;5035147;28;20229;-66
2022/03/21 03:43:38;;;;;;;17.48;14.73;;;6.80;46.70;;;;;;5034920;28;20715;-65
2022/03/21 03:46:06;;;;;;;18.77;14.90;;;6.80;46.60;;;;;;5035167;28;20229;-67
2022/03/21 03:48:32;;;;;;;15.57;13.57;;;6.80;46.50;;;;;;5034769;28;20234;-66
2022/03/21 03:51:00;;;;;;;16.50;13.05;;;6.70;46.60;;;;;;5035010;28;20237;-66
2022/03/21 03:53:31;;;;;;;18.10;15.93;;;6.70;46.70;;;;;;5034654;28;20221;-66
2022/03/21 03:55:58;;;;;;;18.92;14.20;;;6.70;46.60;;;;;;5034985;28;20684;-66
2022/03/21 03:58:25;;;;;;;18.30;15.57;;;6.80;46.70;;;;;;5034515;28;20232;-66
2022/03/21 04:00:51;;;;;;;18.55;14.77;;;6.70;46.60;;;;;;5034885;28;20225;-66
2022/03/21 04:06:03;;;;;;;16.75;13.80;;;6.80;46.80;;;;;;5034849;28;20228;-67
2022/03/21 04:08:31;;;;;;;21.20;14.98;;;6.80;46.70;;;;;;5034854;28;20301;-66
2022/03/21 04:10:57;;;;;;;17.20;15.50;;;6.80;46.60;;;;;;5034677;28;20269;-66
2022/03/21 04:13:24;;;;;;;18.38;14.80;;;6.80;46.90;;;;;;5034278;28;20229;-66
2022/03/21 04:15:51;;;;;;;20.15;15.63;;;6.80;47.30;;;;;;5034694;28;20692;-66
2022/03/21 04:18:19;;;;;;;20.98;15.45;;;6.70;46.90;;;;;;5034191;28;20240;-65
2022/03/21 04:20:46;;;;;;;18.50;15.82;;;6.70;47.00;;;;;;5034689;28;20233;-67
2022/03/21 04:23:13;;;;;;;20.45;15.38;;;6.70;46.90;;;;;;5033893;28;20221;-66
2022/03/21 04:25:41;;;;;;;20.33;14.85;;;6.70;47.00;;;;;;5034252;28;20221;-65
2022/03/21 04:28:09;;;;;;;19.88;16.48;;;6.60;46.90;;;;;;5034019;28;20226;-66
2022/03/21 04:30:36;;;;;;;20.70;15.93;;;6.60;46.90;;;;;;5034425;28;20259;-66
2022/03/21 04:33:03;;;;;;;20.55;15.82;;;6.60;46.90;;;;;;5034036;28;20232;-66
2022/03/21 04:35:30;;;;;;;17.13;14.63;;;6.60;46.90;;;;;;5034391;28;20226;-66
2022/03/21 04:37:57;;;;;;;19.83;15.77;;;6.70;46.90;;;;;;5034202;28;20221;-66
2022/03/21 04:40:24;;;;;;;20.13;15.68;;;6.60;47.00;;;;;;5033791;28;20676;-66
2022/03/21 04:42:52;;;;;;;21.90;17.15;;;6.70;46.90;;;;;;5034107;28;20229;-66
2022/03/21 04:45:20;;;;;;;21.35;16.73;;;6.70;46.70;;;;;;5033667;28;20236;-67
2022/03/21 04:47:46;;;;;;;20.90;15.85;;;6.70;46.60;;;;;;5034069;28;20230;-67
2022/03/21 04:50:14;;;;;;;20.17;15.77;;;6.70;46.70;;;;;;5033395;28;20229;-67
2022/03/21 04:52:41;;;;;;;19.08;15.40;;;6.80;46.60;;;;;;5033948;28;20290;-67
2022/03/21 04:55:09;;;;;;;24.35;16.40;;;6.80;46.40;;;;;;5033491;28;20236;-66
2022/03/21 04:57:36;;;;;;;20.35;16.42;;;6.90;46.60;;;;;;5049888;28;20229;-66
2022/03/21 05:00:06;;;;;;;19.23;15.40;;;6.90;46.50;;;;;;5053830;28;20239;-67
2022/03/21 05:02:33;;;;;;;20.67;17.83;;;6.80;46.30;;;;;;5053350;28;21110;-66
2022/03/21 05:05:00;;;;;;;19.10;17.20;;;6.80;46.30;;;;;;5053681;28;20243;-66
2022/03/21 05:07:27;;;;;;;18.58;15.77;;;6.70;46.30;;;;;;5052947;28;20225;-67
2022/03/21 05:09:58;;;;;;;20.38;15.98;;;6.70;46.40;;;;;;5053625;28;20365;-67
2022/03/21 05:12:25;;;;;;;20.60;15.98;;;6.70;46.40;;;;;;5052962;28;20231;-65
2022/03/21 05:14:59;;;;;;;18.90;15.88;;;6.70;46.90;;;;;;5053445;28;20229;-67
2022/03/21 05:17:30;;;;;;;20.60;17.48;;;6.70;46.30;;;;;;5052921;28;20251;-66
2022/03/21 05:19:57;;;;;;;20.52;17.30;;;6.80;46.30;;;;;;5053243;28;20226;-66
2022/03/21 05:22:24;;;;;;;19.05;15.93;;;6.70;46.50;;;;;;5052597;28;20233;-65
2022/03/21 05:35:58;;;;;;;19.75;15.73;;;6.50;46.80;;;;;;5033452;28;20679;-65
2022/03/21 05:38:26;;;;;;;19.17;15.30;;;6.50;46.80;;;;;;5032773;28;20217;-66
2022/03/21 05:40:56;;;;;;;19.58;15.52;;;6.40;46.70;;;;;;5032956;28;20234;-66
2022/03/21 05:43:24;;;;;;;19.85;16.67;;;6.40;46.80;;;;;;5032524;28;20288;-67
2022/03/21 05:45:51;;;;;;;18.55;15.43;;;6.30;46.70;;;;;;5032938;28;20226;-67
2022/03/21 05:51:04;;;;;;;21.88;16.40;;;6.40;47.00;;;;;;5032502;28;20240;-66
2022/03/21 05:53:35;;;;;;;18.05;14.00;;;6.40;46.90;;;;;;5032261;28;20284;-66
2022/03/21 05:56:03;;;;;;;20.88;14.65;;;6.40;47.00;;;;;;5032424;28;20308;-66
2022/03/21 05:58:30;;;;;;;22.02;15.90;;;6.30;46.80;;;;;;5032722;28;20222;-67
2022/03/21 06:00:57;;;;;;;19.73;15.63;;;6.30;46.90;;;;;;5032537;28;20230;-67
2022/03/21 06:03:25;;;;;;;19.92;15.18;;;6.30;47.20;;;;;;5032164;28;20228;-66
2022/03/21 06:05:55;;;;;;;18.30;16.45;;;6.30;47.00;;;;;;5032865;28;20232;-66
2022/03/21 06:08:23;;;;;;;17.60;14.00;;;6.30;46.90;;;;;;5031997;28;20309;-66
2022/03/21 06:10:51;;;;;;;19.92;15.80;;;6.40;46.90;;;;;;5032618;28;20230;-65
2022/03/21 06:13:17;;;;;;;25.02;16.02;;;6.40;46.90;;;;;;5032357;28;20233;-66
2022/03/21 06:15:47;;;;;;;21.73;15.82;;;6.50;46.80;;;;;;5032592;28;20230;-65
2022/03/21 06:18:14;;;;;;;19.90;16.38;;;6.40;46.70;;;;;;5031914;28;20229;-65
2022/03/21 06:20:42;;;;;;;16.92;15.15;;;6.50;46.80;;;;;;5032541;28;20318;-66
2022/03/21 06:23:09;;;;;;;19.73;16.52;;;6.60;46.60;;;;;;5031953;28;20249;-67
2022/03/21 06:25:37;;;;;;;22.33;17.75;;;6.50;46.50;;;;;;5032406;28;20229;-66
2022/03/21 06:28:05;;;;;;;19.40;15.13;;;6.50;46.30;;;;;;5032072;28;20236;-66
2022/03/21 06:30:33;;;;;;;21.90;16.10;;;6.50;46.50;;;;;;5032280;28;20233;-66
2022/03/21 06:33:00;;;;;;;22.02;15.80;;;6.50;46.30;;;;;;5032391;28;20256;-67
2022/03/21 06:35:26;;;;;;;19.80;15.18;;;6.40;46.40;;;;;;5048534;28;20216;-66
2022/03/21 06:37:54;;;;;;;21.70;15.80;;;6.50;46.50;;;;;;5052341;28;20248;-66
2022/03/21 06:40:23;;;;;;;22.20;15.27;;;6.50;46.60;;;;;;5051877;28;20233;-66
2022/03/21 06:42:50;;;;;;;21.20;15.35;;;6.50;46.70;;;;;;5052844;28;20698;-66
2022/03/21 06:45:17;;;;;;;22.85;15.10;;;6.50;46.40;;;;;;5052125;28;20582;-66
2022/03/21 06:47:44;;;;;;;17.45;14.02;;;6.50;46.60;;;;;;5052330;28;20229;-66
2022/03/21 06:50:11;;;;;;;19.05;16.15;;;6.50;46.70;;;;;;5051993;28;20221;-66
2022/03/21 06:52:39;;;;;;;23.63;14.93;;;6.50;46.50;;;;;;5052069;28;20234;-66
2022/03/21 06:55:10;;;;;;;18.55;15.20;;;6.60;46.40;;;;;;5052386;28;20229;-66
2022/03/21 06:57:37;;;;;;;23.52;16.25;;;6.70;46.70;;;;;;5052200;28;20278;-67
2022/03/21 07:00:05;;;;;;;19.33;16.38;;;6.60;46.30;;;;;;5052141;28;20629;-66
2022/03/21 07:02:32;;;;;;;19.52;15.35;;;6.70;46.30;;;;;;5051508;28;20224;-67
2022/03/21 07:04:59;;;;;;;20.58;14.70;;;6.80;46.30;;;;;;5053333;28;20221;-67
2022/03/21 07:07:29;;;;;;;17.38;15.40;;;6.90;46.10;;;;;;5055337;28;20225;-65
2022/03/21 07:09:56;;;;;;;20.65;15.75;;;6.90;45.80;;;;;;5055802;28;20217;-66
2022/03/21 07:12:24;;;;;;;22.70;15.50;;;7.00;45.80;;;;;;5055584;28;20242;-66
2022/03/21 07:14:51;;;;;;;23.13;15.20;;;7.10;46.10;;;;;;5056063;28;20306;-67
2022/03/21 07:17:19;;;;;;;18.58;15.43;;;7.20;45.80;;;;;;5055676;28;20252;-65
2022/03/21 07:19:46;;;;;;;21.58;16.90;;;7.20;45.50;;;;;;5056089;28;20612;-66
2022/03/21 07:22:14;;;;;;;17.50;13.50;;;7.20;45.40;;;;;;5055497;28;20730;-66
2022/03/21 07:24:41;;;;;;;17.83;13.88;;;7.30;45.30;;;;;;5044141;28;20214;-67
2022/03/21 07:27:08;;;;;;;19.92;13.57;;;7.40;45.40;;;;;;5035604;28;20221;-67
2022/03/21 07:29:38;;;;;;;20.92;15.07;;;7.50;45.20;;;;;;5035043;28;20226;-67
2022/03/21 07:32:07;;;;;;;20.30;15.90;;;7.50;44.10;;;;;;5035567;28;20269;-67
2022/03/21 07:34:34;;;;;;;16.85;13.10;;;7.60;44.40;;;;;;5038658;28;20722;-67
2022/03/21 07:37:00;;;;;;;15.88;13.40;;;7.80;44.50;;;;;;5055337;28;20244;-66
2022/03/21 07:39:29;;;;;;;15.38;12.30;;;7.80;43.40;;;;;;5054993;28;20217;-66
2022/03/21 07:42:00;;;;;;;13.80;11.65;;;7.90;43.20;;;;;;5055095;28;20811;-65
2022/03/21 07:47:21;;;;;;;12.85;11.50;;;8.10;42.30;;;;;;5055258;28;20350;-67
2022/03/21 07:49:49;;;;;;;13.15;11.73;;;8.20;42.20;;;;;;5054894;28;21106;-66
2022/03/21 07:52:18;;;;;;;16.85;10.73;;;8.30;41.80;;;;;;5054829;28;20232;-66
2022/03/21 07:54:45;;;;;;;13.32;10.23;;;8.40;41.40;;;;;;5054712;28;20213;-66
2022/03/21 07:57:12;;;;;;;13.65;11.38;;;8.50;41.40;;;;;;5054884;28;20217;-66
2022/03/21 07:59:40;;;;;;;14.45;11.45;;;8.40;41.00;;;;;;5054690;28;20228;-67
2022/03/21 08:02:07;;;;;;;13.25;10.90;;;8.40;41.00;;;;;;5054794;28;20224;-67
2022/03/21 08:04:35;;;;;;;14.43;10.60;;;8.50;41.10;;;;;;5054374;28;20224;-66
2022/03/21 08:07:02;;;;;;;14.70;12.98;;;8.50;40.70;;;;;;5054615;28;20224;-66
2022/03/21 08:09:29;;;;;;;14.52;12.10;;;8.50;41.00;;;;;;5054462;28;20220;-66
2022/03/21 08:11:57;;;;;;;11.82;10.43;;;8.60;41.20;;;;;;5054651;28;20683;-66
2022/03/21 08:14:24;;;;;;;17.58;11.93;;;8.70;41.10;;;;;;5054532;28;20239;-66
2022/03/21 08:16:51;;;;;;;14.30;12.27;;;8.70;41.10;;;;;;5054076;28;20231;-66
2022/03/21 08:19:19;;;;;;;12.45;11.15;;;8.80;41.10;;;;;;5054783;28;20324;-66
2022/03/21 08:21:47;;;;;;;12.32;10.48;;;8.90;41.00;;;;;;5053948;28;20236;-66
2022/03/21 08:24:14;;;;;;;16.98;12.13;;;9.00;40.70;;;;;;5047078;28;20221;-66
2022/03/21 08:26:43;;;;;;;12.93;10.95;;;9.10;40.50;;;;;;5034109;28;20218;-66
2022/03/21 08:29:10;;;;;;;11.77;10.57;;;9.10;40.10;;;;;;5034428;28;20244;-67
2022/03/21 08:31:37;;;;;;;12.77;9.98;;;9.10;39.70;;;;;;5033899;28;20238;-67
2022/03/21 08:34:04;;;;;;;14.52;10.40;;;9.20;39.60;;;;;;5034307;28;20240;-66
2022/03/21 08:36:31;;;;;;;14.68;9.88;;;9.20;39.60;;;;;;5033824;28;20225;-67
2022/03/21 08:39:00;;;;;;;12.35;10.02;;;9.20;39.30;;;;;;5034282;28;20222;-66
2022/03/21 08:41:27;;;;;;;16.15;10.60;;;9.20;39.50;;;;;;5034174;28;20235;-67
2022/03/21 08:43:54;;;;;;;12.38;10.52;;;9.30;39.50;;;;;;5033957;28;20862;-66
2022/03/21 08:46:22;;;;;;;13.65;10.10;;;9.30;39.40;;;;;;5033986;28;20224;-67
2022/03/21 08:51:33;;;;;;;13.80;10.65;;;9.50;39.40;;;;;;5033931;28;20686;-67
2022/03/21 08:54:01;;;;;;;11.23;9.07;;;9.60;39.10;;;;;;5034425;28;20221;-67
2022/03/21 08:56:28;;;;;;;9.38;8.48;;;9.70;38.60;;;;;;5034198;28;20302;-66
2022/03/21 08:58:55;;;;;;;10.73;8.98;;;9.70;38.50;;;;;;5033744;28;20230;-66
2022/03/21 09:01:22;;;;;;;10.52;8.50;;;9.70;38.50;;;;;;5034054;28;20233;-67
2022/03/21 09:03:51;;;;;;;10.90;8.25;;;9.80;37.90;;;;;;5033499;28;20288;-67
2022/03/21 09:06:20;;;;;;;9.23;8.43;;;9.90;38.00;;;;;;5033988;28;20244;-67
2022/03/21 09:08:53;;;;;;;9.50;8.20;;;10.00;37.80;;;;;;5033077;28;20309;-67
2022/03/21 09:11:21;;;;;;;10.27;7.93;;;10.10;36.50;;;;;;5033464;28;20305;-66
2022/03/21 09:13:49;;;;;;;10.10;7.65;;;10.10;35.90;;;;;;5033376;28;20691;-66
2022/03/21 09:16:17;;;;;;;8.98;8.10;;;10.20;35.70;;;;;;5033397;28;20237;-66
2022/03/21 09:18:44;;;;;;;11.50;7.65;;;10.30;35.70;;;;;;5033026;28;20585;-66
2022/03/21 09:21:12;;;;;;;13.73;8.95;;;10.40;36.10;;;;;;5033557;28;20221;-66
2022/03/21 09:23:40;;;;;;;12.80;9.25;;;10.40;35.80;;;;;;5032524;28;20230;-66
2022/03/21 09:26:08;;;;;;;10.30;8.35;;;10.50;35.70;;;;;;5033290;28;20231;-66
2022/03/21 09:28:36;;;;;;;7.95;7.07;;;10.50;35.00;;;;;;5032217;28;20229;-66
2022/03/21 09:31:06;;;;;;;10.30;7.97;;;10.50;34.70;;;;;;5033276;28;20221;-67
2022/03/21 09:33:33;;;;;;;14.57;8.85;;;10.60;34.80;;;;;;5032819;28;20221;-66
2022/03/21 09:36:00;;;;;;;9.95;8.20;;;10.50;34.60;;;;;;5033534;28;20228;-67
2022/03/21 09:38:27;;;;;;;9.55;8.20;;;10.70;35.30;;;;;;5033043;28;20567;-67
2022/03/21 09:40:54;;;;;;;11.45;8.57;;;10.80;35.40;;;;;;5032750;28;20233;-67
2022/03/21 09:43:21;;;;;;;10.60;9.18;;;10.80;35.10;;;;;;5033134;28;20220;-67
2022/03/21 09:45:49;;;;;;;12.48;8.50;;;10.80;35.00;;;;;;5032540;28;20754;-66
2022/03/21 09:48:19;;;;;;;11.50;8.65;;;10.90;35.10;;;;;;5032863;28;20332;-65
2022/03/21 09:50:50;;;;;;;10.10;8.18;;;10.90;34.80;;;;;;5032475;28;20249;-67
2022/03/21 09:53:17;;;;;;;10.95;9.93;;;11.00;34.50;;;;;;5032610;28;20706;-67
2022/03/21 09:55:45;;;;;;;10.50;9.50;;;10.90;34.50;;;;;;5032529;28;20229;-67
2022/03/21 09:58:13;;;;;;;12.25;8.68;;;11.00;34.60;;;;;;5033209;28;20225;-67
2022/03/21 10:00:40;;;;;;;10.95;8.93;;;11.00;34.90;;;;;;5032573;28;20240;-67
2022/03/21 10:03:09;;;;;;;10.43;8.98;;;11.00;35.00;;;;;;5032997;28;20216;-67
2022/03/21 10:05:39;;;;;;;10.00;8.95;;;11.10;35.30;;;;;;5032408;28;20229;-66
2022/03/21 10:08:20;;;;;;;9.70;8.70;;;11.20;35.30;;;;;;5032712;28;20229;-66
2022/03/21 10:10:54;;;;;;;14.45;10.38;;;11.30;35.20;;;;;;5032401;28;20275;-67
2022/03/21 10:13:23;;;;;;;9.48;7.55;;;11.30;35.20;;;;;;5032767;28;20321;-67
2022/03/21 10:15:50;;;;;;;11.18;9.68;;;11.50;35.50;;;;;;5032306;28;20225;-65
2022/03/21 10:18:19;;;;;;;10.80;8.80;;;11.50;35.30;;;;;;5032640;28;20236;-67
2022/03/21 10:20:46;;;;;;;16.25;10.32;;;11.50;34.80;;;;;;5032040;28;20621;-66
2022/03/21 10:23:17;;;;;;;11.25;8.52;;;11.50;34.60;;;;;;5032401;28;20225;-66
2022/03/21 10:25:45;;;;;;;9.27;8.20;;;11.60;34.60;;;;;;5031965;28;20221;-66
2022/03/21 10:28:31;;;;;;;9.45;8.52;;;11.60;34.60;;;;;;5032259;28;20225;-66
2022/03/21 10:30:59;;;;;;;10.07;9.07;;;11.70;34.80;;;;;;5031813;28;20229;-67
2022/03/21 10:33:27;;;;;;;9.55;8.75;;;11.80;34.80;;;;;;5032393;28;20232;-66
2022/03/21 10:35:54;;;;;;;9.50;8.60;;;11.90;35.00;;;;;;5046723;28;20232;-67
2022/03/21 10:38:30;;;;;;;10.32;9.23;;;12.00;35.30;;;;;;5052372;28;20224;-67
2022/03/21 10:40:57;;;;;;;8.65;7.75;;;12.20;35.40;;;;;;5055972;28;22535;-67
2022/03/21 10:43:29;;;;;;;11.10;9.30;;;12.20;34.50;;;;;;5056466;28;20221;-67
2022/03/21 10:45:56;;;;;;;9.98;8.98;;;12.20;33.70;;;;;;5055801;28;20228;-67
2022/03/21 10:48:30;;;;;;;8.80;7.45;;;12.30;33.80;;;;;;5056113;28;20225;-67
2022/03/21 10:50:58;;;;;;;7.97;7.25;;;12.40;33.50;;;;;;5055871;28;20282;-65
2022/03/21 10:53:27;;;;;;;10.10;9.10;;;12.30;33.10;;;;;;5056043;28;20682;-65
2022/03/21 10:56:01;;;;;;;9.90;8.88;;;12.30;33.00;;;;;;5055833;28;20227;-65
2022/03/21 10:58:35;;;;;;;9.80;8.80;;;12.30;32.90;;;;;;5056217;28;20224;-66
2022/03/21 11:01:13;;;;;;;11.57;8.07;;;12.40;33.20;;;;;;5055708;28;20220;-67
2022/03/21 11:03:49;;;;;;;9.40;8.48;;;12.40;33.20;;;;;;5055676;28;20225;-66
2022/03/21 11:06:16;;;;;;;9.55;8.18;;;12.40;33.30;;;;;;5055939;28;20235;-66
2022/03/21 11:08:47;;;;;;;7.13;6.45;;;12.30;32.40;;;;;;5055433;28;20232;-66
2022/03/21 11:11:14;;;;;;;10.50;8.13;;;12.40;32.70;;;;;;5055668;28;20701;-66
2022/03/21 11:13:41;;;;;;;8.25;7.07;;;12.50;32.80;;;;;;5055445;28;20233;-66
2022/03/21 11:16:09;;;;;;;12.70;9.13;;;12.60;32.90;;;;;;5055844;28;20554;-66
2022/03/21 11:18:36;;;;;;;12.88;9.43;;;12.70;32.90;;;;;;5055802;28;20590;-66
2022/03/21 11:21:05;;;;;;;10.13;9.07;;;12.70;32.90;;;;;;5055087;28;20662;-66
2022/03/21 11:23:31;;;;;;;10.68;7.97;;;12.60;33.10;;;;;;5053854;28;20237;-65
2022/03/21 11:26:04;;;;;;;10.25;9.10;;;12.70;33.30;;;;;;5035228;28;20233;-66
2022/03/21 11:29:02;;;;;;;11.88;7.72;;;12.70;33.10;;;;;;5035483;28;20236;-66
2022/03/21 11:31:51;;;;;;;8.82;8.00;;;12.70;33.10;;;;;;5035345;28;20221;-66
2022/03/21 11:34:35;;;;;;;9.80;7.40;;;12.90;33.40;;;;;;5035440;28;20608;-65
2022/03/21 11:37:03;;;;;;;11.57;8.45;;;13.00;32.70;;;;;;5035726;28;20221;-66
2022/03/21 11:39:31;;;;;;;9.00;7.93;;;13.10;32.70;;;;;;5035048;28;20383;-66
2022/03/21 11:42:00;;;;;;;11.63;9.05;;;13.20;32.90;;;;;;5035235;28;20276;-66
2022/03/21 11:44:27;;;;;;;9.10;8.02;;;13.20;32.30;;;;;;5035008;28;20225;-66
2022/03/21 11:46:54;;;;;;;9.57;7.72;;;13.10;32.50;;;;;;5035304;28;20239;-66
2022/03/21 11:49:43;;;;;;;9.55;8.25;;;13.20;32.30;;;;;;5034675;28;20225;-66
2022/03/21 11:52:12;;;;;;;9.00;8.10;;;13.20;32.10;;;;;;5034082;28;20240;-67
2022/03/21 11:54:39;;;;;;;9.48;7.72;;;13.10;31.70;;;;;;5035150;28;20618;-66
2022/03/21 11:57:07;;;;;;;8.48;7.30;;;13.10;31.90;;;;;;5035182;28;20229;-66
2022/03/21 11:59:49;;;;;;;7.97;7.20;;;13.00;31.20;;;;;;5035030;28;20286;-66
2022/03/21 12:02:53;;;;;;;8.57;7.63;;;13.10;31.30;;;;;;5034654;28;20225;-66
2022/03/21 12:05:46;;;;;;;8.45;7.55;;;13.10;31.30;;;;;;5034512;28;20225;-66
2022/03/21 12:08:36;;;;;;;7.40;6.72;;;13.20;31.10;;;;;;5034355;28;20256;-66
2022/03/21 12:11:03;;;;;;;9.60;8.57;;;13.30;31.90;;;;;;5034691;28;20233;-66
2022/03/21 12:13:42;;;;;;;8.60;7.70;;;13.30;31.10;;;;;;5034500;28;20222;-66
2022/03/21 12:16:20;;;;;;;10.77;9.63;;;13.30;31.10;;;;;;5034883;28;20308;-67
2022/03/21 12:18:59;;;;;;;10.63;9.63;;;13.40;31.50;;;;;;5034986;28;20213;-65
2022/03/21 12:21:26;;;;;;;11.38;10.23;;;13.50;31.70;;;;;;5034590;28;20217;-67
2022/03/21 12:24:17;;;;;;;11.03;9.93;;;13.60;31.50;;;;;;5034200;28;20225;-66
2022/03/21 12:26:51;;;;;;;8.38;7.68;;;13.80;31.60;;;;;;5034153;28;20472;-65
2022/03/21 12:29:35;;;;;;;9.68;7.55;;;13.80;30.30;;;;;;5034498;28;20232;-66
2022/03/21 12:32:25;;;;;;;8.20;7.10;;;13.90;30.20;;;;;;5034213;28;20961;-66
2022/03/21 12:34:53;;;;;;;8.20;7.30;;;14.00;30.30;;;;;;5034090;28;20221;-66
2022/03/21 12:37:44;;;;;;;6.85;6.25;;;14.10;30.10;;;;;;5034439;28;20818;-66
2022/03/21 12:40:14;;;;;;;7.20;6.47;;;14.20;30.00;;;;;;5034099;28;20303;-66
2022/03/21 12:42:46;;;;;;;7.93;6.63;;;14.30;30.00;;;;;;5034213;28;20962;-66
2022/03/21 12:45:20;;;;;;;8.82;7.40;;;14.30;29.40;;;;;;5033784;28;20452;-66
2022/03/21 12:47:47;;;;;;;8.93;7.10;;;14.40;29.80;;;;;;5034194;28;20224;-66
2022/03/21 12:50:20;;;;;;;7.83;7.13;;;14.40;29.80;;;;;;5033681;28;20459;-66
2022/03/21 12:52:55;;;;;;;11.87;8.50;;;14.40;29.70;;;;;;5033988;28;20495;-67
2022/03/21 12:55:24;;;;;;;8.90;8.00;;;14.40;29.50;;;;;;5033655;28;20460;-65
2022/03/21 12:57:58;;;;;;;8.37;7.70;;;14.40;29.60;;;;;;5034030;28;20240;-65
2022/03/21 13:00:27;;;;;;;8.87;7.87;;;14.50;29.90;;;;;;5033515;28;20486;-66
2022/03/21 13:02:56;;;;;;;8.77;7.97;;;14.40;29.90;;;;;;5032564;28;20658;-66
2022/03/21 13:11:01;;;;;;;9.40;8.48;;;14.40;29.90;;;;;;5033789;28;20607;-66
2022/03/21 13:13:41;;;;;;;9.33;8.43;;;14.40;30.00;;;;;;5033304;28;20259;-66
2022/03/21 13:16:08;;;;;;;10.20;8.47;;;14.40;30.00;;;;;;5033161;28;20514;-66
2022/03/21 13:18:39;;;;;;;12.80;9.32;;;14.40;30.00;;;;;;5033441;28;20976;-66